Time;durP1;ratioP1;P1;durP2;ratioP2;P2;SDS_P1;SDS_P2;PMS_P1;PMS_P2;Temp;Humidity;BMP_temperature;BMP_pressure;BME280_temperature;BME280_humidity;BME280_pressure;Samples;Min_cycle;Max_cycle;Signal;HPM_P1;HPM_P2
2022/11/01 00:01:44;;;;;;;25.85;14.82;;;13.40;99.90;;;;;;4993611;28;20045;-76
2022/11/01 00:04:10;;;;;;;26.65;14.27;;;13.40;99.90;;;;;;4977261;28;20449;-76
2022/11/01 00:06:36;;;;;;;27.50;13.75;;;13.20;99.90;;;;;;4993529;28;20049;-76
2022/11/01 00:09:03;;;;;;;22.80;14.80;;;13.40;99.90;;;;;;4994085;28;20093;-76
2022/11/01 00:11:29;;;;;;;24.50;14.60;;;13.30;99.90;;;;;;4993499;28;20030;-76
2022/11/01 00:13:54;;;;;;;31.20;16.27;;;13.30;99.90;;;;;;4994003;28;20038;-76
2022/11/01 00:16:21;;;;;;;23.95;13.95;;;13.40;99.90;;;;;;4993704;28;20043;-75
2022/11/01 00:18:47;;;;;;;22.02;13.32;;;13.30;99.90;;;;;;4993460;28;20042;-76
2022/11/01 00:21:13;;;;;;;23.63;14.15;;;13.20;99.90;;;;;;4993253;28;20096;-76
2022/11/01 00:23:39;;;;;;;28.63;14.27;;;13.40;99.90;;;;;;4993005;28;20096;-76
2022/11/01 00:26:05;;;;;;;25.65;14.57;;;13.40;99.90;;;;;;4993488;28;20436;-77
2022/11/01 00:28:32;;;;;;;19.08;13.70;;;13.40;99.90;;;;;;4993158;28;20133;-76
2022/11/01 00:30:58;;;;;;;25.75;13.68;;;13.20;99.90;;;;;;4993110;28;20504;-76
2022/11/01 00:33:24;;;;;;;25.92;14.15;;;13.20;99.90;;;;;;4992647;28;20038;-77
2022/11/01 00:35:50;;;;;;;22.65;12.68;;;13.30;99.90;;;;;;4993239;28;20042;-77
2022/11/01 00:38:17;;;;;;;25.42;14.50;;;13.40;99.90;;;;;;4992946;28;20518;-77
2022/11/01 00:40:43;;;;;;;24.55;12.95;;;13.30;99.90;;;;;;4992996;28;20088;-76
2022/11/01 00:43:10;;;;;;;22.77;13.57;;;13.30;99.90;;;;;;4992593;28;20130;-76
2022/11/01 00:45:35;;;;;;;23.40;13.68;;;13.40;99.90;;;;;;4993277;28;20479;-77
2022/11/01 00:48:01;;;;;;;20.23;13.20;;;13.30;99.90;;;;;;4993227;28;20100;-76
2022/11/01 00:50:26;;;;;;;22.80;12.27;;;13.40;99.90;;;;;;4993238;28;20526;-77
2022/11/01 00:52:52;;;;;;;25.20;12.05;;;13.40;99.90;;;;;;4992581;28;20046;-76
2022/11/01 00:55:17;;;;;;;24.88;12.27;;;13.40;99.90;;;;;;4992867;28;20042;-76
2022/11/01 00:57:44;;;;;;;20.27;12.77;;;13.30;99.90;;;;;;4992744;28;20034;-76
2022/11/01 01:00:11;;;;;;;18.52;12.73;;;13.40;99.90;;;;;;4992499;28;20043;-76
2022/11/01 01:02:37;;;;;;;20.02;12.13;;;13.40;99.90;;;;;;4992355;28;20103;-76
2022/11/01 01:05:03;;;;;;;21.50;11.65;;;13.40;99.90;;;;;;4992724;28;20669;-77
2022/11/01 01:07:29;;;;;;;21.50;12.43;;;13.50;99.90;;;;;;4992312;28;20570;-76
2022/11/01 01:09:55;;;;;;;23.48;11.50;;;13.30;99.90;;;;;;4992185;28;20050;-77
2022/11/01 01:12:20;;;;;;;19.27;12.98;;;13.50;99.90;;;;;;4992059;28;20037;-76
2022/11/01 01:14:46;;;;;;;23.73;11.85;;;13.50;99.90;;;;;;4992179;28;20042;-77
2022/11/01 01:17:11;;;;;;;26.73;12.38;;;13.50;99.90;;;;;;4992133;28;20045;-76
2022/11/01 01:19:37;;;;;;;19.65;12.00;;;13.40;99.90;;;;;;4993816;28;20504;-76
2022/11/01 01:22:02;;;;;;;22.10;12.23;;;13.50;99.90;;;;;;4993068;28;20042;-76
2022/11/01 01:24:28;;;;;;;17.10;11.48;;;13.40;99.90;;;;;;4991512;28;20042;-76
2022/11/01 01:26:54;;;;;;;24.23;12.23;;;13.40;99.90;;;;;;4992062;28;20034;-76
2022/11/01 01:29:19;;;;;;;20.10;11.70;;;13.40;99.90;;;;;;4991898;28;20042;-76
2022/11/01 01:31:45;;;;;;;20.10;11.75;;;13.50;99.90;;;;;;4991822;28;20565;-76
2022/11/01 01:34:10;;;;;;;20.65;11.20;;;13.60;99.90;;;;;;4991614;28;20073;-77
2022/11/01 01:36:36;;;;;;;19.77;10.18;;;13.70;99.90;;;;;;4991937;28;20039;-76
2022/11/01 01:39:01;;;;;;;18.95;11.32;;;13.60;99.90;;;;;;4991929;28;20046;-77
2022/11/01 01:44:59;;;;;;;21.38;11.27;;;13.70;99.90;;;;;;4991442;28;20092;-76
2022/11/01 01:47:37;;;;;;;16.80;10.45;;;13.70;99.90;;;;;;4978734;28;20052;-76
2022/11/01 01:50:29;;;;;;;20.60;11.70;;;13.60;99.90;;;;;;4991459;28;20050;-76
2022/11/01 01:53:18;;;;;;;20.33;9.73;;;13.70;99.90;;;;;;4991445;28;20034;-76
2022/11/01 01:55:58;;;;;;;19.45;11.02;;;13.80;99.90;;;;;;4992558;28;20045;-76
2022/11/01 01:58:32;;;;;;;16.10;9.80;;;13.80;99.90;;;;;;4991720;28;20129;-76
2022/11/01 02:00:58;;;;;;;20.95;10.73;;;13.90;99.90;;;;;;4975400;28;20497;-76
2022/11/01 02:03:28;;;;;;;19.00;10.57;;;13.80;99.90;;;;;;4991246;28;20518;-77
2022/11/01 02:06:01;;;;;;;22.80;9.98;;;13.70;99.90;;;;;;4991698;28;20096;-76
2022/11/01 02:08:27;;;;;;;19.90;9.45;;;13.80;99.90;;;;;;4991301;28;20069;-77
2022/11/01 02:10:55;;;;;;;17.63;9.20;;;13.80;99.90;;;;;;4991711;28;20452;-76
2022/11/01 02:13:20;;;;;;;19.08;9.95;;;13.90;99.90;;;;;;4990932;28;20034;-76
2022/11/01 02:16:15;;;;;;;24.83;10.05;;;13.80;99.90;;;;;;4991601;28;20101;-76
2022/11/01 02:18:50;;;;;;;16.75;10.27;;;13.80;99.90;;;;;;4991292;28;20042;-76
2022/11/01 02:21:44;;;;;;;17.17;9.77;;;13.80;99.90;;;;;;4992559;28;20054;-77
2022/11/01 02:24:43;;;;;;;16.73;9.88;;;14.00;99.90;;;;;;4991136;28;20049;-76
2022/11/01 02:27:13;;;;;;;25.58;10.00;;;13.80;99.90;;;;;;4990892;28;20049;-76
2022/11/01 02:30:05;;;;;;;18.08;9.52;;;14.00;99.90;;;;;;4991082;28;20046;-77
2022/11/01 02:32:37;;;;;;;20.58;9.68;;;13.90;99.90;;;;;;4990762;28;20035;-76
2022/11/01 02:35:28;;;;;;;15.07;9.27;;;13.90;99.90;;;;;;4991281;28;20054;-77
2022/11/01 02:37:59;;;;;;;15.40;8.90;;;13.80;99.90;;;;;;4994790;28;20045;-76
2022/11/01 02:40:39;;;;;;;15.15;9.48;;;14.00;99.90;;;;;;4995153;28;20064;-76
2022/11/01 02:43:13;;;;;;;18.92;10.18;;;14.00;99.90;;;;;;4995888;28;20162;-77
2022/11/01 02:45:45;;;;;;;14.63;9.52;;;13.90;99.90;;;;;;4996298;28;20047;-77
2022/11/01 02:48:10;;;;;;;18.77;9.10;;;14.10;99.90;;;;;;4996502;28;20054;-77
2022/11/01 02:50:41;;;;;;;18.25;9.20;;;13.90;99.90;;;;;;4997265;28;20523;-76
2022/11/01 02:53:07;;;;;;;16.05;9.45;;;14.10;99.90;;;;;;4994951;28;20043;-76
2022/11/01 02:55:34;;;;;;;16.90;9.93;;;14.10;99.90;;;;;;4996225;28;20041;-76
2022/11/01 02:58:06;;;;;;;20.00;8.95;;;14.10;99.90;;;;;;4994897;28;20061;-76
2022/11/01 03:00:34;;;;;;;16.73;8.50;;;14.10;99.90;;;;;;4995055;28;20488;-76
2022/11/01 03:03:15;;;;;;;16.08;9.68;;;14.10;99.90;;;;;;4995149;28;20069;-77
2022/11/01 03:05:49;;;;;;;17.50;8.82;;;14.10;99.90;;;;;;4995116;28;20136;-76
2022/11/01 03:08:23;;;;;;;18.27;8.52;;;14.10;99.90;;;;;;4994622;28;20042;-76
2022/11/01 03:11:20;;;;;;;21.55;9.40;;;14.10;99.90;;;;;;4995104;28;20554;-76
2022/11/01 03:13:52;;;;;;;20.50;9.90;;;13.90;99.90;;;;;;4994337;28;20081;-76
2022/11/01 03:17:08;;;;;;;17.83;9.85;;;13.90;99.90;;;;;;4994620;28;20038;-76
2022/11/01 03:19:43;;;;;;;14.38;8.70;;;14.20;99.90;;;;;;4973861;28;20053;-76
2022/11/01 03:22:27;;;;;;;14.82;8.63;;;14.00;99.90;;;;;;4957836;28;20090;-76
2022/11/01 03:25:05;;;;;;;15.38;9.15;;;14.00;99.90;;;;;;4983890;28;20440;-76
2022/11/01 03:27:31;;;;;;;16.55;8.40;;;14.00;99.90;;;;;;4994519;28;20539;-76
2022/11/01 03:30:04;;;;;;;19.02;8.73;;;14.10;99.90;;;;;;4994458;28;20488;-77
2022/11/01 03:32:45;;;;;;;15.82;8.90;;;13.90;99.90;;;;;;4993828;28;20045;-77
2022/11/01 03:35:16;;;;;;;16.98;8.90;;;14.00;99.90;;;;;;4994164;28;20085;-77
2022/11/01 03:37:44;;;;;;;13.93;8.07;;;14.00;99.90;;;;;;4994069;28;20125;-76
2022/11/01 03:40:14;;;;;;;15.50;8.35;;;14.20;99.90;;;;;;4993841;28;20078;-77
2022/11/01 03:42:43;;;;;;;12.90;7.85;;;14.20;99.90;;;;;;4993721;28;20046;-76
2022/11/01 03:45:11;;;;;;;12.73;7.60;;;14.20;99.90;;;;;;4993909;28;20050;-77
2022/11/01 03:47:36;;;;;;;16.60;8.65;;;14.10;99.90;;;;;;4993469;28;20512;-77
2022/11/01 03:50:15;;;;;;;14.95;7.90;;;14.20;99.90;;;;;;4993876;28;20045;-77
2022/11/01 03:52:41;;;;;;;17.85;8.88;;;14.10;99.90;;;;;;4993969;28;20046;-76
2022/11/01 03:55:19;;;;;;;18.95;8.80;;;14.30;99.90;;;;;;4994178;28;20034;-76
2022/11/01 03:57:52;;;;;;;15.77;7.95;;;14.30;99.90;;;;;;4994076;28;20039;-76
2022/11/01 04:00:22;;;;;;;15.20;8.35;;;14.30;99.90;;;;;;4993805;28;20532;-76
2022/11/01 04:02:50;;;;;;;12.77;7.95;;;14.10;99.90;;;;;;4993393;28;20193;-76
2022/11/01 04:05:16;;;;;;;11.00;7.13;;;14.30;99.90;;;;;;4977391;28;20042;-76
2022/11/01 04:07:43;;;;;;;14.40;8.15;;;14.20;99.90;;;;;;4994238;28;20038;-76
2022/11/01 04:10:09;;;;;;;17.13;8.55;;;14.30;99.90;;;;;;4994504;28;20060;-77
2022/11/01 04:12:35;;;;;;;15.02;7.63;;;14.30;99.90;;;;;;4993331;28;20049;-77
2022/11/01 04:20:35;;;;;;;13.23;7.20;;;14.10;99.90;;;;;;4994308;28;20050;-77
2022/11/01 04:23:03;;;;;;;14.07;7.93;;;14.00;99.90;;;;;;4993134;28;20077;-77
2022/11/01 04:25:29;;;;;;;15.73;8.60;;;14.00;99.90;;;;;;4993279;28;20053;-77
2022/11/01 04:27:55;;;;;;;15.85;7.97;;;14.00;99.90;;;;;;4993403;28;20411;-77
2022/11/01 04:30:26;;;;;;;16.05;7.45;;;14.00;99.90;;;;;;4993381;28;20049;-76
2022/11/01 04:32:51;;;;;;;12.98;7.60;;;13.90;99.90;;;;;;4992853;28;20110;-77
2022/11/01 04:35:17;;;;;;;15.57;7.70;;;13.90;99.90;;;;;;4976956;28;20081;-78
2022/11/01 04:37:43;;;;;;;16.75;7.32;;;14.00;99.90;;;;;;4976745;28;20034;-76
2022/11/01 04:40:10;;;;;;;15.38;7.68;;;14.00;99.90;;;;;;4993129;28;20133;-76
2022/11/01 04:42:36;;;;;;;12.30;7.90;;;14.10;99.90;;;;;;4992814;28;20039;-76
2022/11/01 04:45:03;;;;;;;12.80;6.00;;;13.90;99.90;;;;;;4992979;28;20121;-77
2022/11/01 04:47:29;;;;;;;14.18;7.30;;;14.00;99.90;;;;;;4994211;28;20054;-77
2022/11/01 04:49:54;;;;;;;11.32;6.80;;;14.20;99.90;;;;;;4993671;28;20049;-77
2022/11/01 04:52:20;;;;;;;13.40;6.70;;;14.10;99.90;;;;;;4992509;28;20038;-77
2022/11/01 04:54:46;;;;;;;11.40;6.85;;;14.30;99.90;;;;;;4992670;28;20053;-77
2022/11/01 04:57:21;;;;;;;11.77;6.70;;;14.40;99.90;;;;;;4992706;28;20034;-77
2022/11/01 04:59:53;;;;;;;12.38;5.90;;;14.40;99.90;;;;;;4991914;28;20078;-77
2022/11/01 05:02:20;;;;;;;14.32;5.90;;;14.30;99.90;;;;;;4992458;28;20068;-77
2022/11/01 05:04:46;;;;;;;13.88;6.93;;;14.30;99.90;;;;;;4992648;28;20050;-77
2022/11/01 05:07:12;;;;;;;13.05;6.53;;;14.30;99.90;;;;;;4992305;28;20141;-77
2022/11/01 05:09:38;;;;;;;10.10;6.05;;;14.40;99.90;;;;;;4992337;28;20082;-77
2022/11/01 05:12:03;;;;;;;9.60;5.38;;;14.50;99.90;;;;;;4992312;28;20089;-77
2022/11/01 05:14:29;;;;;;;11.10;5.93;;;14.40;99.90;;;;;;4992525;28;20754;-77
2022/11/01 05:16:55;;;;;;;16.13;6.43;;;14.70;99.90;;;;;;4993548;28;20049;-77
2022/11/01 05:19:21;;;;;;;10.35;5.72;;;14.60;99.90;;;;;;4992536;28;20039;-77
2022/11/01 05:21:46;;;;;;;11.88;5.32;;;14.60;99.90;;;;;;4992130;28;20038;-77
2022/11/01 05:24:12;;;;;;;10.23;6.03;;;14.50;99.90;;;;;;4975784;28;20045;-76
2022/11/01 05:26:37;;;;;;;11.70;5.80;;;14.50;99.90;;;;;;4993277;28;20084;-77
2022/11/01 05:29:03;;;;;;;8.27;5.57;;;14.60;99.90;;;;;;4991993;28;20427;-77
2022/11/01 05:31:29;;;;;;;11.43;6.45;;;14.50;99.90;;;;;;4991882;28;20096;-77
2022/11/01 05:33:54;;;;;;;13.88;5.78;;;14.50;99.90;;;;;;4991497;28;20412;-77
2022/11/01 05:36:20;;;;;;;15.10;6.20;;;14.50;99.90;;;;;;4992214;28;20046;-77
2022/11/01 05:38:45;;;;;;;11.10;6.60;;;14.90;99.90;;;;;;4992152;28;20038;-77
2022/11/01 05:41:11;;;;;;;10.32;6.05;;;14.70;99.90;;;;;;4993562;28;20066;-77
2022/11/01 05:43:36;;;;;;;9.40;5.93;;;14.80;99.90;;;;;;4992836;28;20038;-77
2022/11/01 05:46:04;;;;;;;11.93;6.40;;;14.90;99.90;;;;;;4996846;28;20409;-77
2022/11/01 05:48:29;;;;;;;12.32;6.60;;;14.80;99.90;;;;;;4997216;28;20046;-77
2022/11/01 05:50:55;;;;;;;14.25;6.38;;;14.80;99.90;;;;;;4993542;28;20042;-77
2022/11/01 05:53:20;;;;;;;10.75;5.40;;;14.80;99.90;;;;;;4992738;28;20045;-77
2022/11/01 05:55:46;;;;;;;12.77;5.72;;;14.80;99.90;;;;;;4992988;28;20524;-77
2022/11/01 05:58:12;;;;;;;11.25;5.25;;;15.20;99.90;;;;;;4991270;28;20556;-74
2022/11/01 06:00:37;;;;;;;10.25;5.45;;;14.90;99.90;;;;;;4992592;28;20054;-78
2022/11/01 06:03:03;;;;;;;13.63;6.20;;;15.20;99.90;;;;;;4992231;28;20042;-75
2022/11/01 06:05:29;;;;;;;15.07;4.78;;;15.10;99.90;;;;;;4991292;28;20050;-74
2022/11/01 06:07:56;;;;;;;8.73;2.83;;;15.40;99.90;;;;;;4991033;28;20562;-76
2022/11/01 06:10:21;;;;;;;9.20;3.35;;;15.40;99.90;;;;;;4974931;28;20508;-75
2022/11/01 06:12:47;;;;;;;8.50;3.20;;;15.40;99.90;;;;;;4993036;28;20042;-77
2022/11/01 06:15:13;;;;;;;7.75;2.10;;;15.40;99.90;;;;;;4992961;28;20038;-77
2022/11/01 06:17:38;;;;;;;9.52;1.80;;;15.30;99.90;;;;;;4992166;28;20583;-78
2022/11/01 06:20:04;;;;;;;6.97;1.50;;;15.30;99.90;;;;;;4993974;28;20582;-77
2022/11/01 06:22:30;;;;;;;6.03;1.50;;;15.20;99.90;;;;;;4994249;28;20046;-77
2022/11/01 06:24:55;;;;;;;7.80;1.40;;;15.10;99.90;;;;;;4993065;28;20411;-75
2022/11/01 06:27:21;;;;;;;5.78;1.38;;;15.00;99.90;;;;;;4991343;28;20042;-74
2022/11/01 06:29:46;;;;;;;7.22;2.15;;;14.90;99.90;;;;;;4992213;28;20054;-77
2022/11/01 06:32:12;;;;;;;4.95;1.10;;;14.80;99.90;;;;;;4992790;28;20109;-77
2022/11/01 06:34:37;;;;;;;6.65;1.13;;;14.80;99.90;;;;;;4992548;28;20125;-78
2022/11/01 06:37:03;;;;;;;5.85;0.98;;;14.90;99.90;;;;;;4993258;28;20034;-76
2022/11/01 06:39:28;;;;;;;4.13;1.00;;;14.70;99.90;;;;;;4993035;28;20053;-77
2022/11/01 06:41:54;;;;;;;3.45;0.80;;;14.60;99.90;;;;;;4993090;28;20045;-77
2022/11/01 06:44:20;;;;;;;9.05;1.48;;;14.60;99.90;;;;;;4991160;28;20048;-76
2022/11/01 06:46:45;;;;;;;2.28;0.80;;;14.60;99.90;;;;;;4992663;28;20049;-77
2022/11/01 06:49:11;;;;;;;6.32;1.38;;;14.40;99.90;;;;;;4991626;28;20038;-76
2022/11/01 06:51:36;;;;;;;5.60;1.27;;;14.40;99.90;;;;;;4992669;28;20093;-76
2022/11/01 06:54:02;;;;;;;10.50;1.52;;;14.40;99.90;;;;;;4990565;28;20116;-76
2022/11/01 06:56:27;;;;;;;2.83;0.88;;;14.30;99.90;;;;;;4990973;28;20046;-75
2022/11/01 06:58:53;;;;;;;10.23;1.30;;;14.30;99.90;;;;;;4990944;28;20048;-76
2022/11/01 07:01:20;;;;;;;8.80;1.77;;;14.20;99.90;;;;;;4992892;28;20524;-77
2022/11/01 07:03:49;;;;;;;4.88;0.82;;;14.20;99.90;;;;;;4990728;28;20046;-76
2022/11/01 07:06:15;;;;;;;7.95;1.00;;;14.20;99.90;;;;;;4990752;28;20042;-77
2022/11/01 07:08:40;;;;;;;4.13;1.00;;;14.10;99.90;;;;;;4991591;28;20408;-76
2022/11/01 07:11:06;;;;;;;7.22;0.90;;;14.10;99.90;;;;;;4991552;28;20054;-75
2022/11/01 07:13:33;;;;;;;3.42;1.20;;;14.00;99.90;;;;;;5007346;28;20057;-76
2022/11/01 07:16:00;;;;;;;6.53;1.23;;;14.00;99.90;;;;;;4990684;28;20125;-76
2022/11/01 07:18:28;;;;;;;4.43;1.27;;;14.00;99.90;;;;;;4990595;28;20038;-76
2022/11/01 07:20:54;;;;;;;7.85;1.23;;;13.90;99.90;;;;;;4990927;28;20038;-75
2022/11/01 07:23:19;;;;;;;4.47;1.05;;;13.90;99.90;;;;;;4993504;28;20049;-75
2022/11/01 07:25:50;;;;;;;7.35;1.20;;;13.90;99.90;;;;;;4998278;28;20042;-79
2022/11/01 07:28:16;;;;;;;5.28;1.38;;;13.90;99.90;;;;;;4997650;28;20074;-78
2022/11/01 07:30:41;;;;;;;5.80;1.38;;;13.80;99.90;;;;;;4996437;28;20084;-79
2022/11/01 07:33:07;;;;;;;5.60;1.20;;;13.90;99.90;;;;;;4994396;28;20038;-78
2022/11/01 07:35:34;;;;;;;13.40;1.70;;;13.90;99.90;;;;;;4995178;28;20046;-78
2022/11/01 07:38:00;;;;;;;7.90;1.77;;;14.10;99.90;;;;;;4996291;28;20558;-78
2022/11/01 07:40:27;;;;;;;7.72;1.40;;;14.20;99.90;;;;;;4994644;28;20404;-78
2022/11/01 07:42:55;;;;;;;9.52;1.67;;;14.30;99.90;;;;;;4994631;28;20115;-78
2022/11/01 07:45:21;;;;;;;5.22;1.80;;;14.50;99.90;;;;;;4994468;28;20042;-79
2022/11/01 07:47:48;;;;;;;6.85;1.25;;;14.40;99.90;;;;;;4994448;28;20389;-79
2022/11/01 07:50:13;;;;;;;8.10;1.33;;;14.30;99.90;;;;;;4994146;28;20145;-78
2022/11/01 07:52:39;;;;;;;7.07;1.85;;;14.40;99.90;;;;;;4994770;28;20125;-78
2022/11/01 07:55:05;;;;;;;6.78;1.40;;;14.30;99.90;;;;;;4994845;28;20667;-78
2022/11/01 07:57:30;;;;;;;6.75;1.65;;;14.30;99.90;;;;;;4993685;28;20493;-78
2022/11/01 07:59:56;;;;;;;7.50;1.98;;;14.30;99.90;;;;;;4993552;28;20039;-78
2022/11/01 08:02:21;;;;;;;6.82;1.58;;;14.30;99.90;;;;;;4994692;28;20040;-79
2022/11/01 08:04:47;;;;;;;8.13;1.65;;;14.30;99.90;;;;;;4993738;28;20463;-78
2022/11/01 08:07:12;;;;;;;8.05;2.88;;;14.30;99.90;;;;;;4993628;28;20054;-77
2022/11/01 08:09:38;;;;;;;8.32;1.73;;;14.50;99.90;;;;;;4996295;28;20104;-78
2022/11/01 08:12:03;;;;;;;7.10;1.63;;;14.70;99.90;;;;;;5002554;28;20039;-80
2022/11/01 08:14:29;;;;;;;6.20;1.40;;;14.80;99.90;;;;;;5000736;28;20093;-78
2022/11/01 08:16:59;;;;;;;10.05;1.60;;;14.90;99.90;;;;;;4993439;28;20038;-78
2022/11/01 08:19:24;;;;;;;8.38;1.58;;;14.90;99.90;;;;;;4994365;28;20034;-78
2022/11/01 08:21:50;;;;;;;11.75;1.92;;;14.90;99.90;;;;;;4993087;28;20042;-78
2022/11/01 08:24:16;;;;;;;6.05;1.77;;;14.90;99.90;;;;;;4992770;28;20463;-78
2022/11/01 08:26:42;;;;;;;6.90;1.50;;;15.00;99.90;;;;;;5004160;28;20061;-78
2022/11/01 08:29:07;;;;;;;5.38;2.58;;;15.00;99.90;;;;;;5012314;28;20515;-78
2022/11/01 08:31:33;;;;;;;5.88;1.50;;;15.00;99.90;;;;;;5013715;28;20132;-78
2022/11/01 08:33:59;;;;;;;10.23;2.78;;;15.10;99.90;;;;;;5012207;28;20491;-78
2022/11/01 08:36:24;;;;;;;10.68;2.03;;;15.00;99.90;;;;;;5013900;28;20058;-78
2022/11/01 08:38:50;;;;;;;8.32;1.92;;;14.90;99.90;;;;;;5012373;28;20121;-79
2022/11/01 08:41:16;;;;;;;13.18;3.10;;;14.90;99.90;;;;;;5012766;28;20562;-77
2022/11/01 08:43:41;;;;;;;14.15;2.67;;;14.80;99.90;;;;;;5012103;28;20056;-77
2022/11/01 08:46:09;;;;;;;10.30;2.38;;;14.70;99.90;;;;;;5012463;28;20045;-77
2022/11/01 08:48:35;;;;;;;13.05;2.67;;;14.60;99.90;;;;;;5013447;28;20046;-76
2022/11/01 08:51:01;;;;;;;12.60;2.30;;;14.60;99.90;;;;;;5012421;28;20103;-77
2022/11/01 08:53:26;;;;;;;16.05;3.53;;;14.60;99.90;;;;;;5011484;28;20042;-76
2022/11/01 08:55:56;;;;;;;19.55;2.95;;;14.40;99.90;;;;;;5011965;28;20054;-77
2022/11/01 08:58:21;;;;;;;16.38;2.92;;;14.50;99.90;;;;;;5013121;28;20038;-76
2022/11/01 09:00:47;;;;;;;13.30;3.10;;;14.50;99.90;;;;;;5011795;28;20515;-77
2022/11/01 09:03:13;;;;;;;12.05;3.78;;;14.50;99.90;;;;;;5012875;28;20045;-77
2022/11/01 09:05:39;;;;;;;18.25;3.30;;;14.50;99.90;;;;;;5012012;28;20476;-77
2022/11/01 09:08:05;;;;;;;10.50;2.28;;;14.60;99.90;;;;;;5011917;28;20137;-78
2022/11/01 09:10:31;;;;;;;15.73;3.03;;;14.70;99.90;;;;;;5008537;28;20049;-77
2022/11/01 09:13:00;;;;;;;17.70;4.25;;;14.70;99.90;;;;;;5000949;28;20382;-77
2022/11/01 09:15:26;;;;;;;18.67;3.90;;;14.80;99.90;;;;;;5002191;28;20397;-78
2022/11/01 09:17:52;;;;;;;12.27;2.97;;;14.90;99.90;;;;;;4994829;28;20053;-78
2022/11/01 09:20:20;;;;;;;19.42;3.97;;;14.90;99.90;;;;;;4991475;28;20034;-78
2022/11/01 09:22:51;;;;;;;16.48;3.05;;;14.90;99.90;;;;;;4989129;28;20112;-77
2022/11/01 09:25:16;;;;;;;13.52;3.13;;;15.00;99.90;;;;;;4991803;28;20504;-76
2022/11/01 09:27:42;;;;;;;20.45;3.70;;;15.10;99.90;;;;;;4975767;28;20050;-76
2022/11/01 09:30:08;;;;;;;10.90;2.67;;;15.20;99.90;;;;;;5002129;28;20049;-76
2022/11/01 09:32:33;;;;;;;22.13;3.53;;;15.10;99.90;;;;;;5001131;28;20042;-76
2022/11/01 09:34:59;;;;;;;16.55;3.45;;;15.20;99.90;;;;;;5001365;28;20051;-76
2022/11/01 09:37:25;;;;;;;16.95;2.80;;;15.10;99.90;;;;;;4998944;28;20109;-76
2022/11/01 09:39:50;;;;;;;18.38;2.92;;;15.10;99.90;;;;;;5000966;28;20438;-76
2022/11/01 09:42:33;;;;;;;11.60;2.95;;;15.20;99.90;;;;;;5004076;28;20045;-76
2022/11/01 09:45:04;;;;;;;18.85;3.67;;;15.20;99.90;;;;;;5012085;28;20105;-76
2022/11/01 09:47:32;;;;;;;15.35;3.10;;;15.20;99.90;;;;;;4999609;28;20103;-76
2022/11/01 09:50:15;;;;;;;17.70;4.15;;;15.30;99.90;;;;;;4991390;28;20053;-76
2022/11/01 09:52:40;;;;;;;18.50;3.97;;;15.30;99.90;;;;;;4991285;28;20038;-77
2022/11/01 09:55:20;;;;;;;16.92;2.97;;;15.30;99.90;;;;;;4991419;28;20149;-76
2022/11/01 09:58:15;;;;;;;13.93;3.45;;;15.40;99.90;;;;;;4991335;28;20039;-76
2022/11/01 10:00:49;;;;;;;17.52;2.63;;;15.40;99.90;;;;;;4991315;28;20039;-76
2022/11/01 10:03:40;;;;;;;18.00;3.15;;;15.40;99.90;;;;;;4990988;28;20575;-77
2022/11/01 10:06:18;;;;;;;12.65;2.53;;;15.40;99.90;;;;;;4991196;28;20096;-77
2022/11/01 10:08:52;;;;;;;12.90;3.10;;;15.40;99.90;;;;;;4991125;28;20042;-77
2022/11/01 10:11:34;;;;;;;11.20;4.43;;;15.40;99.90;;;;;;4991552;28;20100;-76
2022/11/01 10:14:29;;;;;;;13.23;3.63;;;15.30;99.90;;;;;;4990840;28;20096;-77
2022/11/01 10:16:58;;;;;;;14.63;2.90;;;15.30;99.90;;;;;;4991361;28;20054;-77
2022/11/01 10:19:25;;;;;;;14.65;3.58;;;15.30;99.90;;;;;;4991028;28;20042;-77
2022/11/01 10:21:55;;;;;;;16.40;3.55;;;15.30;99.90;;;;;;4991113;28;20049;-77
2022/11/01 10:24:23;;;;;;;9.70;2.83;;;15.30;99.90;;;;;;4990883;28;20048;-76
2022/11/01 10:26:54;;;;;;;12.80;2.47;;;15.40;99.90;;;;;;4990666;28;20050;-76
2022/11/01 10:29:48;;;;;;;17.58;3.53;;;15.40;99.90;;;;;;5000614;28;20050;-78
2022/11/01 10:32:30;;;;;;;19.50;2.80;;;15.40;99.90;;;;;;4997309;28;20038;-76
2022/11/01 10:35:01;;;;;;;16.90;3.58;;;15.40;99.90;;;;;;4996116;28;20575;-76
2022/11/01 10:37:36;;;;;;;13.93;3.25;;;15.40;99.90;;;;;;4999176;28;20398;-76
2022/11/01 10:40:10;;;;;;;14.57;3.03;;;15.40;99.90;;;;;;4992117;28;20034;-76
2022/11/01 10:42:36;;;;;;;15.68;3.00;;;15.50;99.90;;;;;;4990645;28;20651;-76
2022/11/01 10:45:07;;;;;;;15.82;3.42;;;15.50;99.90;;;;;;4991022;28;20038;-77
2022/11/01 10:47:33;;;;;;;18.63;3.30;;;15.50;99.90;;;;;;4990721;28;20042;-77
2022/11/01 10:50:21;;;;;;;15.10;2.92;;;15.60;99.90;;;;;;4990617;28;20164;-76
2022/11/01 10:52:55;;;;;;;20.55;3.10;;;15.50;99.90;;;;;;4994103;28;20586;-77
2022/11/01 10:55:33;;;;;;;14.93;4.32;;;15.50;99.90;;;;;;4990893;28;20050;-76
2022/11/01 10:58:04;;;;;;;14.38;2.90;;;15.50;99.90;;;;;;4992841;28;20038;-76
2022/11/01 11:00:32;;;;;;;13.68;3.40;;;15.40;99.90;;;;;;4994585;28;20076;-77
2022/11/01 11:03:06;;;;;;;18.95;3.13;;;15.40;99.90;;;;;;4994274;28;20504;-77
2022/11/01 11:05:32;;;;;;;11.65;3.05;;;15.30;99.90;;;;;;4994677;28;20038;-77
2022/11/01 11:08:03;;;;;;;14.35;3.40;;;15.30;99.90;;;;;;4994897;28;20065;-77
2022/11/01 11:10:28;;;;;;;13.70;2.60;;;15.30;99.90;;;;;;4994504;28;20236;-77
2022/11/01 11:13:03;;;;;;;14.88;2.22;;;15.20;99.90;;;;;;4994055;28;20038;-78
2022/11/01 11:15:51;;;;;;;15.48;2.97;;;15.20;99.90;;;;;;4994408;28;20046;-77
2022/11/01 11:18:37;;;;;;;12.02;2.80;;;15.20;99.90;;;;;;4978294;28;20030;-76
2022/11/01 11:21:11;;;;;;;14.88;3.17;;;15.20;99.90;;;;;;4994373;28;20070;-76
2022/11/01 11:23:43;;;;;;;11.13;3.08;;;15.20;99.90;;;;;;4994106;28;20049;-77
2022/11/01 11:26:15;;;;;;;14.43;3.08;;;15.20;99.90;;;;;;4994231;28;20377;-76
2022/11/01 11:28:46;;;;;;;10.75;2.83;;;15.20;99.90;;;;;;4993959;28;20046;-76
2022/11/01 11:31:27;;;;;;;17.08;3.38;;;15.20;99.90;;;;;;4994180;28;20547;-77
2022/11/01 11:34:00;;;;;;;10.30;3.25;;;15.20;99.90;;;;;;4993560;28;20050;-76
2022/11/01 11:36:32;;;;;;;10.18;2.72;;;15.30;99.90;;;;;;4994175;28;20034;-77
2022/11/01 11:38:58;;;;;;;19.02;3.67;;;15.30;99.90;;;;;;4994047;28;20038;-76
2022/11/01 11:41:38;;;;;;;13.70;3.05;;;15.30;99.90;;;;;;4994144;28;20039;-77
2022/11/01 11:44:33;;;;;;;13.40;3.10;;;15.40;99.90;;;;;;4993398;28;20049;-77
2022/11/01 11:46:58;;;;;;;12.95;3.17;;;15.40;99.90;;;;;;4993873;28;20042;-76
2022/11/01 11:49:27;;;;;;;15.60;2.95;;;15.50;99.90;;;;;;4993766;28;20393;-76
2022/11/01 11:51:53;;;;;;;10.52;2.92;;;15.50;99.90;;;;;;4994002;28;20050;-76
2022/11/01 11:54:36;;;;;;;17.58;3.95;;;15.60;99.90;;;;;;4993416;28;20108;-76
2022/11/01 11:57:23;;;;;;;13.57;2.95;;;15.50;99.90;;;;;;4993853;28;20381;-76
2022/11/01 12:00:04;;;;;;;11.73;2.63;;;15.50;99.90;;;;;;4993731;28;20050;-76
2022/11/01 12:02:34;;;;;;;17.15;3.22;;;15.50;99.90;;;;;;4993554;28;20129;-77
2022/11/01 12:05:04;;;;;;;13.32;2.33;;;15.50;99.90;;;;;;4993791;28;20125;-76
2022/11/01 12:07:51;;;;;;;16.08;3.53;;;15.60;99.90;;;;;;4993618;28;20112;-76
2022/11/01 12:10:33;;;;;;;15.60;3.15;;;15.60;99.90;;;;;;4993462;28;20042;-76
2022/11/01 12:13:00;;;;;;;14.95;2.42;;;15.50;99.90;;;;;;4992896;28;20532;-77
2022/11/01 12:15:34;;;;;;;10.50;3.05;;;15.50;99.90;;;;;;5002407;28;20042;-77
2022/11/01 12:18:14;;;;;;;15.10;3.35;;;15.50;99.90;;;;;;5012751;28;20511;-78
2022/11/01 12:20:41;;;;;;;21.20;4.78;;;15.60;99.90;;;;;;5004287;28;20066;-79
2022/11/01 12:23:20;;;;;;;16.20;3.10;;;15.50;99.90;;;;;;5009542;28;20112;-78
2022/11/01 12:25:47;;;;;;;12.52;2.58;;;15.50;99.90;;;;;;5012766;28;20057;-78
2022/11/01 12:28:35;;;;;;;18.73;3.38;;;15.50;99.90;;;;;;4997553;28;20049;-79
2022/11/01 12:31:20;;;;;;;14.55;2.70;;;15.60;99.90;;;;;;5012548;28;20169;-77
2022/11/01 12:33:53;;;;;;;12.85;2.60;;;15.60;99.90;;;;;;5011959;28;20081;-77
2022/11/01 12:36:26;;;;;;;10.15;2.13;;;15.60;99.90;;;;;;5012669;28;20451;-76
2022/11/01 12:38:57;;;;;;;11.23;2.53;;;15.60;99.90;;;;;;5010034;28;20045;-76
2022/11/01 12:41:45;;;;;;;14.07;2.65;;;15.70;99.90;;;;;;4974848;28;20046;-76
2022/11/01 12:44:34;;;;;;;11.23;1.98;;;15.70;99.90;;;;;;4993847;28;20042;-77
2022/11/01 12:47:20;;;;;;;12.00;2.80;;;15.70;99.90;;;;;;5001847;28;20049;-77
2022/11/01 12:49:51;;;;;;;10.82;2.25;;;15.70;99.90;;;;;;5003936;28;20514;-76
2022/11/01 12:52:41;;;;;;;13.52;2.33;;;15.80;99.90;;;;;;4996160;28;20053;-77
2022/11/01 12:55:21;;;;;;;12.18;2.65;;;15.70;99.90;;;;;;5018694;28;20516;-77
2022/11/01 12:57:47;;;;;;;12.45;2.78;;;15.70;99.90;;;;;;4994768;28;20566;-79
2022/11/01 13:00:19;;;;;;;10.52;2.08;;;15.70;99.90;;;;;;4992562;28;20042;-77
2022/11/01 13:03:38;;;;;;;15.15;2.15;;;15.80;99.90;;;;;;4992386;28;20046;-77